sensor_id;sensor_type;location;lat;lon;timestamp;P1;durP1;ratioP1;P2;durP2;ratioP2
6868;SDS011;3473;42.604;23.496;2023-04-25T00:00:59;3.20;;;1.63;;
6868;SDS011;3473;42.604;23.496;2023-04-25T00:02:32;15.43;;;7.80;;
6868;SDS011;3473;42.604;23.496;2023-04-25T00:04:04;5.80;;;3.27;;
6868;SDS011;3473;42.604;23.496;2023-04-25T00:05:36;3.73;;;2.23;;
6868;SDS011;3473;42.604;23.496;2023-04-25T00:07:09;3.80;;;2.20;;
6868;SDS011;3473;42.604;23.496;2023-04-25T00:08:40;3.27;;;1.80;;
6868;SDS011;3473;42.604;23.496;2023-04-25T00:10:13;4.87;;;2.00;;
6868;SDS011;3473;42.604;23.496;2023-04-25T00:11:45;4.87;;;2.10;;
6868;SDS011;3473;42.604;23.496;2023-04-25T00:13:16;3.83;;;2.10;;
6868;SDS011;3473;42.604;23.496;2023-04-25T00:14:49;3.10;;;1.87;;
6868;SDS011;3473;42.604;23.496;2023-04-25T00:16:21;3.37;;;1.97;;
6868;SDS011;3473;42.604;23.496;2023-04-25T00:17:53;4.10;;;2.30;;
6868;SDS011;3473;42.604;23.496;2023-04-25T00:19:25;3.37;;;1.70;;
6868;SDS011;3473;42.604;23.496;2023-04-25T00:20:58;3.87;;;1.93;;
6868;SDS011;3473;42.604;23.496;2023-04-25T00:22:30;3.87;;;2.00;;
6868;SDS011;3473;42.604;23.496;2023-04-25T00:24:01;2.70;;;1.73;;
6868;SDS011;3473;42.604;23.496;2023-04-25T00:25:34;2.97;;;1.83;;
6868;SDS011;3473;42.604;23.496;2023-04-25T00:27:06;3.43;;;2.40;;
6868;SDS011;3473;42.604;23.496;2023-04-25T00:28:37;5.73;;;3.03;;
6868;SDS011;3473;42.604;23.496;2023-04-25T00:30:09;4.27;;;2.20;;
6868;SDS011;3473;42.604;23.496;2023-04-25T00:31:40;4.07;;;2.20;;
6868;SDS011;3473;42.604;23.496;2023-04-25T00:33:12;2.83;;;1.60;;
6868;SDS011;3473;42.604;23.496;2023-04-25T00:34:43;2.63;;;1.67;;
6868;SDS011;3473;42.604;23.496;2023-04-25T00:36:15;2.23;;;1.20;;
6868;SDS011;3473;42.604;23.496;2023-04-25T00:37:47;3.63;;;1.93;;
6868;SDS011;3473;42.604;23.496;2023-04-25T00:39:18;3.00;;;1.83;;
6868;SDS011;3473;42.604;23.496;2023-04-25T00:40:51;3.37;;;2.10;;
6868;SDS011;3473;42.604;23.496;2023-04-25T00:42:23;3.57;;;2.00;;
6868;SDS011;3473;42.604;23.496;2023-04-25T00:43:55;4.07;;;2.43;;
6868;SDS011;3473;42.604;23.496;2023-04-25T00:45:27;4.37;;;2.30;;
6868;SDS011;3473;42.604;23.496;2023-04-25T00:46:59;4.57;;;2.70;;
6868;SDS011;3473;42.604;23.496;2023-04-25T00:48:31;5.33;;;2.90;;
6868;SDS011;3473;42.604;23.496;2023-04-25T00:50:03;5.47;;;3.07;;
6868;SDS011;3473;42.604;23.496;2023-04-25T00:51:34;7.07;;;3.43;;
6868;SDS011;3473;42.604;23.496;2023-04-25T00:53:06;11.47;;;4.03;;
6868;SDS011;3473;42.604;23.496;2023-04-25T00:54:36;9.63;;;3.93;;
6868;SDS011;3473;42.604;23.496;2023-04-25T00:56:09;11.00;;;4.17;;
6868;SDS011;3473;42.604;23.496;2023-04-25T00:57:41;7.07;;;3.30;;
6868;SDS011;3473;42.604;23.496;2023-04-25T00:59:13;7.57;;;3.87;;
6868;SDS011;3473;42.604;23.496;2023-04-25T01:00:44;9.07;;;4.03;;
6868;SDS011;3473;42.604;23.496;2023-04-25T01:02:16;6.13;;;3.87;;
6868;SDS011;3473;42.604;23.496;2023-04-25T01:03:48;12.73;;;5.40;;
6868;SDS011;3473;42.604;23.496;2023-04-25T01:05:21;13.07;;;6.13;;
6868;SDS011;3473;42.604;23.496;2023-04-25T01:06:52;8.57;;;4.23;;
6868;SDS011;3473;42.604;23.496;2023-04-25T01:08:23;6.60;;;3.63;;
6868;SDS011;3473;42.604;23.496;2023-04-25T01:09:55;4.97;;;2.53;;
6868;SDS011;3473;42.604;23.496;2023-04-25T01:11:28;5.00;;;2.23;;
6868;SDS011;3473;42.604;23.496;2023-04-25T01:12:59;3.37;;;2.23;;
6868;SDS011;3473;42.604;23.496;2023-04-25T01:14:30;4.60;;;2.30;;
6868;SDS011;3473;42.604;23.496;2023-04-25T01:16:02;4.50;;;2.27;;
6868;SDS011;3473;42.604;23.496;2023-04-25T01:17:34;2.97;;;1.60;;
6868;SDS011;3473;42.604;23.496;2023-04-25T01:19:06;3.73;;;1.87;;
6868;SDS011;3473;42.604;23.496;2023-04-25T01:20:41;2.70;;;1.63;;
6868;SDS011;3473;42.604;23.496;2023-04-25T01:22:14;1.87;;;1.43;;
6868;SDS011;3473;42.604;23.496;2023-04-25T01:23:45;3.33;;;2.43;;
6868;SDS011;3473;42.604;23.496;2023-04-25T01:25:17;3.57;;;2.00;;
6868;SDS011;3473;42.604;23.496;2023-04-25T01:26:49;1.83;;;1.00;;
6868;SDS011;3473;42.604;23.496;2023-04-25T01:28:21;5.00;;;2.30;;
6868;SDS011;3473;42.604;23.496;2023-04-25T01:29:52;4.37;;;2.77;;
6868;SDS011;3473;42.604;23.496;2023-04-25T01:31:24;1.37;;;1.20;;
6868;SDS011;3473;42.604;23.496;2023-04-25T01:32:56;2.50;;;1.47;;
6868;SDS011;3473;42.604;23.496;2023-04-25T01:34:27;2.40;;;1.50;;
6868;SDS011;3473;42.604;23.496;2023-04-25T01:35:59;0.97;;;0.83;;
6868;SDS011;3473;42.604;23.496;2023-04-25T01:37:32;3.07;;;1.93;;
6868;SDS011;3473;42.604;23.496;2023-04-25T01:39:04;2.43;;;1.30;;
6868;SDS011;3473;42.604;23.496;2023-04-25T01:40:37;4.40;;;2.10;;
6868;SDS011;3473;42.604;23.496;2023-04-25T01:42:08;2.63;;;1.47;;
6868;SDS011;3473;42.604;23.496;2023-04-25T01:43:40;2.27;;;1.57;;
6868;SDS011;3473;42.604;23.496;2023-04-25T01:45:11;2.90;;;1.90;;
6868;SDS011;3473;42.604;23.496;2023-04-25T01:46:42;4.70;;;2.37;;
6868;SDS011;3473;42.604;23.496;2023-04-25T01:48:13;4.10;;;2.40;;
6868;SDS011;3473;42.604;23.496;2023-04-25T01:49:44;3.63;;;2.30;;
6868;SDS011;3473;42.604;23.496;2023-04-25T01:51:15;4.10;;;2.17;;
6868;SDS011;3473;42.604;23.496;2023-04-25T01:52:47;3.97;;;2.30;;
6868;SDS011;3473;42.604;23.496;2023-04-25T01:54:19;4.30;;;2.33;;
6868;SDS011;3473;42.604;23.496;2023-04-25T01:55:50;3.93;;;2.17;;
6868;SDS011;3473;42.604;23.496;2023-04-25T01:57:22;3.03;;;1.93;;
6868;SDS011;3473;42.604;23.496;2023-04-25T01:58:53;3.47;;;2.13;;
6868;SDS011;3473;42.604;23.496;2023-04-25T02:00:25;2.97;;;1.90;;
6868;SDS011;3473;42.604;23.496;2023-04-25T02:01:56;2.93;;;1.90;;
6868;SDS011;3473;42.604;23.496;2023-04-25T02:03:28;4.53;;;2.00;;
6868;SDS011;3473;42.604;23.496;2023-04-25T02:05:00;4.10;;;2.40;;
6868;SDS011;3473;42.604;23.496;2023-04-25T02:06:31;1.90;;;1.43;;
6868;SDS011;3473;42.604;23.496;2023-04-25T02:08:04;3.30;;;1.97;;
6868;SDS011;3473;42.604;23.496;2023-04-25T02:09:36;2.67;;;1.70;;
6868;SDS011;3473;42.604;23.496;2023-04-25T02:11:07;3.70;;;2.33;;
6868;SDS011;3473;42.604;23.496;2023-04-25T02:12:38;3.30;;;2.03;;
6868;SDS011;3473;42.604;23.496;2023-04-25T02:14:10;3.97;;;2.30;;
6868;SDS011;3473;42.604;23.496;2023-04-25T02:15:41;3.17;;;1.90;;
6868;SDS011;3473;42.604;23.496;2023-04-25T02:17:12;4.63;;;2.80;;
6868;SDS011;3473;42.604;23.496;2023-04-25T02:18:43;5.93;;;3.00;;
6868;SDS011;3473;42.604;23.496;2023-04-25T02:20:15;5.33;;;3.20;;
6868;SDS011;3473;42.604;23.496;2023-04-25T02:21:47;4.47;;;2.53;;
6868;SDS011;3473;42.604;23.496;2023-04-25T02:23:20;2.67;;;1.97;;
6868;SDS011;3473;42.604;23.496;2023-04-25T02:24:51;5.40;;;2.20;;
6868;SDS011;3473;42.604;23.496;2023-04-25T02:26:22;4.20;;;2.60;;
6868;SDS011;3473;42.604;23.496;2023-04-25T02:27:54;3.73;;;2.10;;
6868;SDS011;3473;42.604;23.496;2023-04-25T02:29:25;6.47;;;2.77;;
6868;SDS011;3473;42.604;23.496;2023-04-25T02:30:56;4.77;;;2.67;;
6868;SDS011;3473;42.604;23.496;2023-04-25T02:32:27;4.93;;;3.00;;
6868;SDS011;3473;42.604;23.496;2023-04-25T02:33:59;5.93;;;3.30;;
6868;SDS011;3473;42.604;23.496;2023-04-25T02:35:30;6.73;;;3.27;;
6868;SDS011;3473;42.604;23.496;2023-04-25T02:37:02;6.90;;;2.93;;
6868;SDS011;3473;42.604;23.496;2023-04-25T02:38:35;6.90;;;3.30;;
6868;SDS011;3473;42.604;23.496;2023-04-25T02:40:06;6.43;;;3.30;;
6868;SDS011;3473;42.604;23.496;2023-04-25T02:41:38;6.90;;;3.17;;
6868;SDS011;3473;42.604;23.496;2023-04-25T02:43:09;7.67;;;3.47;;
6868;SDS011;3473;42.604;23.496;2023-04-25T02:46:45;10.20;;;3.53;;
6868;SDS011;3473;42.604;23.496;2023-04-25T02:48:16;9.70;;;4.73;;
6868;SDS011;3473;42.604;23.496;2023-04-25T02:49:48;9.43;;;4.33;;
6868;SDS011;3473;42.604;23.496;2023-04-25T02:51:18;8.87;;;4.47;;
6868;SDS011;3473;42.604;23.496;2023-04-25T02:52:50;7.57;;;3.70;;
6868;SDS011;3473;42.604;23.496;2023-04-25T02:54:23;8.80;;;4.40;;
6868;SDS011;3473;42.604;23.496;2023-04-25T02:55:54;13.10;;;5.93;;
6868;SDS011;3473;42.604;23.496;2023-04-25T02:59:36;11.47;;;4.63;;
6868;SDS011;3473;42.604;23.496;2023-04-25T03:01:07;9.60;;;4.30;;
6868;SDS011;3473;42.604;23.496;2023-04-25T03:02:39;17.27;;;6.73;;
6868;SDS011;3473;42.604;23.496;2023-04-25T03:04:10;11.87;;;4.97;;
6868;SDS011;3473;42.604;23.496;2023-04-25T03:05:40;11.17;;;5.00;;
6868;SDS011;3473;42.604;23.496;2023-04-25T03:07:12;10.10;;;4.10;;
6868;SDS011;3473;42.604;23.496;2023-04-25T03:08:43;10.43;;;3.93;;
6868;SDS011;3473;42.604;23.496;2023-04-25T03:10:16;7.63;;;3.27;;
6868;SDS011;3473;42.604;23.496;2023-04-25T03:11:48;5.57;;;2.60;;
6868;SDS011;3473;42.604;23.496;2023-04-25T03:13:19;4.70;;;2.57;;
6868;SDS011;3473;42.604;23.496;2023-04-25T03:14:50;5.93;;;3.20;;
6868;SDS011;3473;42.604;23.496;2023-04-25T03:16:21;4.50;;;2.27;;
6868;SDS011;3473;42.604;23.496;2023-04-25T03:17:53;6.57;;;2.87;;
6868;SDS011;3473;42.604;23.496;2023-04-25T03:19:23;6.13;;;2.97;;
6868;SDS011;3473;42.604;23.496;2023-04-25T03:20:55;6.33;;;2.70;;
6868;SDS011;3473;42.604;23.496;2023-04-25T03:22:25;6.73;;;2.83;;
6868;SDS011;3473;42.604;23.496;2023-04-25T03:23:57;4.97;;;2.87;;
6868;SDS011;3473;42.604;23.496;2023-04-25T03:25:30;6.00;;;3.17;;
6868;SDS011;3473;42.604;23.496;2023-04-25T03:27:01;6.37;;;3.30;;
6868;SDS011;3473;42.604;23.496;2023-04-25T03:28:32;6.60;;;3.83;;
6868;SDS011;3473;42.604;23.496;2023-04-25T03:30:05;6.77;;;3.60;;
6868;SDS011;3473;42.604;23.496;2023-04-25T03:31:36;6.47;;;3.90;;
6868;SDS011;3473;42.604;23.496;2023-04-25T03:33:08;9.20;;;4.10;;
6868;SDS011;3473;42.604;23.496;2023-04-25T03:34:39;8.23;;;4.17;;
6868;SDS011;3473;42.604;23.496;2023-04-25T03:36:10;6.37;;;3.80;;
6868;SDS011;3473;42.604;23.496;2023-04-25T03:37:41;8.10;;;4.80;;
6868;SDS011;3473;42.604;23.496;2023-04-25T03:39:15;7.07;;;3.90;;
6868;SDS011;3473;42.604;23.496;2023-04-25T03:40:48;7.40;;;4.20;;
6868;SDS011;3473;42.604;23.496;2023-04-25T03:42:20;11.43;;;5.47;;
6868;SDS011;3473;42.604;23.496;2023-04-25T03:43:52;9.70;;;5.30;;
6868;SDS011;3473;42.604;23.496;2023-04-25T03:45:24;11.57;;;6.37;;
6868;SDS011;3473;42.604;23.496;2023-04-25T03:46:55;9.87;;;5.70;;
6868;SDS011;3473;42.604;23.496;2023-04-25T03:48:27;10.47;;;5.10;;
6868;SDS011;3473;42.604;23.496;2023-04-25T03:49:58;9.53;;;4.77;;
6868;SDS011;3473;42.604;23.496;2023-04-25T03:51:31;10.57;;;4.70;;
6868;SDS011;3473;42.604;23.496;2023-04-25T03:55:10;9.23;;;5.00;;
6868;SDS011;3473;42.604;23.496;2023-04-25T03:56:43;14.40;;;4.60;;
6868;SDS011;3473;42.604;23.496;2023-04-25T03:58:15;11.00;;;5.07;;
6868;SDS011;3473;42.604;23.496;2023-04-25T03:59:52;8.93;;;4.87;;
6868;SDS011;3473;42.604;23.496;2023-04-25T04:01:23;12.37;;;5.53;;
6868;SDS011;3473;42.604;23.496;2023-04-25T04:02:55;10.97;;;5.23;;
6868;SDS011;3473;42.604;23.496;2023-04-25T04:04:26;11.47;;;4.87;;
6868;SDS011;3473;42.604;23.496;2023-04-25T04:05:58;10.17;;;5.10;;
6868;SDS011;3473;42.604;23.496;2023-04-25T04:07:30;11.47;;;5.60;;
6868;SDS011;3473;42.604;23.496;2023-04-25T04:09:03;14.03;;;5.37;;
6868;SDS011;3473;42.604;23.496;2023-04-25T04:10:34;9.00;;;4.60;;
6868;SDS011;3473;42.604;23.496;2023-04-25T04:12:07;12.10;;;5.30;;
6868;SDS011;3473;42.604;23.496;2023-04-25T04:13:38;13.70;;;5.57;;
6868;SDS011;3473;42.604;23.496;2023-04-25T04:15:10;13.13;;;5.67;;
6868;SDS011;3473;42.604;23.496;2023-04-25T04:16:42;12.20;;;4.63;;
6868;SDS011;3473;42.604;23.496;2023-04-25T04:18:13;10.77;;;5.13;;
6868;SDS011;3473;42.604;23.496;2023-04-25T04:21:54;10.93;;;5.23;;
6868;SDS011;3473;42.604;23.496;2023-04-25T04:23:25;11.40;;;5.43;;
6868;SDS011;3473;42.604;23.496;2023-04-25T04:24:58;10.90;;;4.40;;
6868;SDS011;3473;42.604;23.496;2023-04-25T04:26:29;4.87;;;2.90;;
6868;SDS011;3473;42.604;23.496;2023-04-25T04:28:03;6.47;;;3.20;;
6868;SDS011;3473;42.604;23.496;2023-04-25T04:29:35;4.70;;;2.77;;
6868;SDS011;3473;42.604;23.496;2023-04-25T04:31:06;4.47;;;2.70;;
6868;SDS011;3473;42.604;23.496;2023-04-25T04:32:38;4.73;;;2.43;;
6868;SDS011;3473;42.604;23.496;2023-04-25T04:34:08;3.27;;;2.13;;
6868;SDS011;3473;42.604;23.496;2023-04-25T04:35:41;5.63;;;2.70;;
6868;SDS011;3473;42.604;23.496;2023-04-25T04:37:12;3.80;;;2.37;;
6868;SDS011;3473;42.604;23.496;2023-04-25T04:38:45;7.40;;;3.60;;
6868;SDS011;3473;42.604;23.496;2023-04-25T04:40:16;5.97;;;3.37;;
6868;SDS011;3473;42.604;23.496;2023-04-25T04:41:48;6.37;;;3.20;;
6868;SDS011;3473;42.604;23.496;2023-04-25T04:43:22;5.20;;;3.13;;
6868;SDS011;3473;42.604;23.496;2023-04-25T04:44:53;7.00;;;3.13;;
6868;SDS011;3473;42.604;23.496;2023-04-25T04:46:25;7.13;;;3.13;;
6868;SDS011;3473;42.604;23.496;2023-04-25T04:47:58;6.00;;;3.10;;
6868;SDS011;3473;42.604;23.496;2023-04-25T04:49:29;6.57;;;3.37;;
6868;SDS011;3473;42.604;23.496;2023-04-25T04:51:01;7.13;;;3.50;;
6868;SDS011;3473;42.604;23.496;2023-04-25T04:52:32;7.87;;;3.33;;
6868;SDS011;3473;42.604;23.496;2023-04-25T04:54:04;5.60;;;3.20;;
6868;SDS011;3473;42.604;23.496;2023-04-25T04:55:35;6.00;;;3.30;;
6868;SDS011;3473;42.604;23.496;2023-04-25T04:57:07;5.30;;;2.80;;
6868;SDS011;3473;42.604;23.496;2023-04-25T04:58:39;8.30;;;3.93;;
6868;SDS011;3473;42.604;23.496;2023-04-25T05:00:11;6.60;;;3.10;;
6868;SDS011;3473;42.604;23.496;2023-04-25T05:01:43;6.20;;;3.00;;
6868;SDS011;3473;42.604;23.496;2023-04-25T05:03:14;6.67;;;3.07;;
6868;SDS011;3473;42.604;23.496;2023-04-25T05:04:46;5.03;;;3.10;;
6868;SDS011;3473;42.604;23.496;2023-04-25T05:06:18;8.10;;;3.90;;
6868;SDS011;3473;42.604;23.496;2023-04-25T05:07:49;4.97;;;3.37;;
6868;SDS011;3473;42.604;23.496;2023-04-25T05:09:20;7.80;;;3.43;;
6868;SDS011;3473;42.604;23.496;2023-04-25T05:10:55;7.63;;;3.77;;
6868;SDS011;3473;42.604;23.496;2023-04-25T05:12:27;7.13;;;3.43;;
6868;SDS011;3473;42.604;23.496;2023-04-25T05:13:59;7.67;;;3.87;;
6868;SDS011;3473;42.604;23.496;2023-04-25T05:15:31;8.13;;;4.27;;
6868;SDS011;3473;42.604;23.496;2023-04-25T05:17:02;7.97;;;4.43;;
6868;SDS011;3473;42.604;23.496;2023-04-25T05:18:36;7.93;;;3.93;;
6868;SDS011;3473;42.604;23.496;2023-04-25T05:20:08;7.60;;;3.70;;
6868;SDS011;3473;42.604;23.496;2023-04-25T05:21:40;9.03;;;4.47;;
6868;SDS011;3473;42.604;23.496;2023-04-25T05:23:13;7.03;;;3.57;;
6868;SDS011;3473;42.604;23.496;2023-04-25T05:24:44;9.47;;;4.57;;
6868;SDS011;3473;42.604;23.496;2023-04-25T05:26:16;9.93;;;4.10;;
6868;SDS011;3473;42.604;23.496;2023-04-25T05:27:47;6.33;;;3.47;;
6868;SDS011;3473;42.604;23.496;2023-04-25T05:29:20;6.83;;;3.70;;
6868;SDS011;3473;42.604;23.496;2023-04-25T05:30:51;5.23;;;2.70;;
6868;SDS011;3473;42.604;23.496;2023-04-25T05:32:23;5.23;;;2.83;;
6868;SDS011;3473;42.604;23.496;2023-04-25T05:33:55;6.37;;;3.23;;
6868;SDS011;3473;42.604;23.496;2023-04-25T05:35:26;9.50;;;2.83;;
6868;SDS011;3473;42.604;23.496;2023-04-25T05:36:58;9.03;;;4.10;;
6868;SDS011;3473;42.604;23.496;2023-04-25T05:38:29;6.40;;;3.60;;
6868;SDS011;3473;42.604;23.496;2023-04-25T05:40:00;8.60;;;4.13;;
6868;SDS011;3473;42.604;23.496;2023-04-25T05:41:36;8.50;;;3.77;;
6868;SDS011;3473;42.604;23.496;2023-04-25T05:43:08;7.30;;;3.40;;
6868;SDS011;3473;42.604;23.496;2023-04-25T05:44:41;5.07;;;3.10;;
6868;SDS011;3473;42.604;23.496;2023-04-25T05:46:12;5.20;;;2.87;;
6868;SDS011;3473;42.604;23.496;2023-04-25T05:47:43;7.63;;;3.47;;
6868;SDS011;3473;42.604;23.496;2023-04-25T05:49:15;12.00;;;5.10;;
6868;SDS011;3473;42.604;23.496;2023-04-25T05:50:46;69.20;;;22.90;;
6868;SDS011;3473;42.604;23.496;2023-04-25T05:52:18;140.07;;;38.77;;
6868;SDS011;3473;42.604;23.496;2023-04-25T05:53:49;124.90;;;39.03;;
6868;SDS011;3473;42.604;23.496;2023-04-25T05:55:21;85.87;;;28.57;;
6868;SDS011;3473;42.604;23.496;2023-04-25T05:56:52;36.27;;;13.63;;
6868;SDS011;3473;42.604;23.496;2023-04-25T05:58:24;17.43;;;7.40;;
6868;SDS011;3473;42.604;23.496;2023-04-25T05:59:59;30.53;;;13.63;;
6868;SDS011;3473;42.604;23.496;2023-04-25T06:01:30;14.27;;;7.00;;
6868;SDS011;3473;42.604;23.496;2023-04-25T06:03:02;9.30;;;4.50;;
6868;SDS011;3473;42.604;23.496;2023-04-25T06:04:33;10.10;;;4.53;;
6868;SDS011;3473;42.604;23.496;2023-04-25T06:06:05;11.27;;;4.93;;
6868;SDS011;3473;42.604;23.496;2023-04-25T06:07:35;31.70;;;11.77;;
6868;SDS011;3473;42.604;23.496;2023-04-25T06:09:07;46.90;;;19.20;;
6868;SDS011;3473;42.604;23.496;2023-04-25T06:10:38;42.60;;;17.53;;
6868;SDS011;3473;42.604;23.496;2023-04-25T06:12:10;69.10;;;24.00;;
6868;SDS011;3473;42.604;23.496;2023-04-25T06:13:41;34.33;;;14.30;;
6868;SDS011;3473;42.604;23.496;2023-04-25T06:15:14;24.00;;;9.57;;
6868;SDS011;3473;42.604;23.496;2023-04-25T06:16:46;15.20;;;6.87;;
6868;SDS011;3473;42.604;23.496;2023-04-25T06:18:17;14.27;;;6.13;;
6868;SDS011;3473;42.604;23.496;2023-04-25T06:19:49;10.57;;;5.50;;
6868;SDS011;3473;42.604;23.496;2023-04-25T06:21:20;15.17;;;7.77;;
6868;SDS011;3473;42.604;23.496;2023-04-25T06:22:52;15.17;;;6.83;;
6868;SDS011;3473;42.604;23.496;2023-04-25T06:24:23;10.13;;;5.47;;
6868;SDS011;3473;42.604;23.496;2023-04-25T06:25:55;10.73;;;4.70;;
6868;SDS011;3473;42.604;23.496;2023-04-25T06:27:26;11.00;;;5.30;;
6868;SDS011;3473;42.604;23.496;2023-04-25T06:28:58;13.17;;;5.60;;
6868;SDS011;3473;42.604;23.496;2023-04-25T06:30:30;10.77;;;5.87;;
6868;SDS011;3473;42.604;23.496;2023-04-25T06:32:02;9.27;;;4.60;;
6868;SDS011;3473;42.604;23.496;2023-04-25T06:33:33;10.30;;;4.23;;
6868;SDS011;3473;42.604;23.496;2023-04-25T06:35:05;7.27;;;3.83;;
6868;SDS011;3473;42.604;23.496;2023-04-25T06:36:37;9.63;;;4.33;;
6868;SDS011;3473;42.604;23.496;2023-04-25T06:38:08;9.13;;;4.50;;
6868;SDS011;3473;42.604;23.496;2023-04-25T06:41:41;9.97;;;5.17;;
6868;SDS011;3473;42.604;23.496;2023-04-25T06:43:13;7.67;;;4.13;;
6868;SDS011;3473;42.604;23.496;2023-04-25T06:44:44;5.90;;;3.30;;
6868;SDS011;3473;42.604;23.496;2023-04-25T06:46:17;7.30;;;3.83;;
6868;SDS011;3473;42.604;23.496;2023-04-25T06:47:48;7.53;;;4.10;;
6868;SDS011;3473;42.604;23.496;2023-04-25T06:49:20;6.47;;;3.47;;
6868;SDS011;3473;42.604;23.496;2023-04-25T06:50:51;5.87;;;3.50;;
6868;SDS011;3473;42.604;23.496;2023-04-25T06:52:22;6.37;;;3.60;;
6868;SDS011;3473;42.604;23.496;2023-04-25T06:53:54;13.33;;;4.83;;
6868;SDS011;3473;42.604;23.496;2023-04-25T06:55:26;6.13;;;3.53;;
6868;SDS011;3473;42.604;23.496;2023-04-25T06:56:57;5.77;;;3.20;;
6868;SDS011;3473;42.604;23.496;2023-04-25T06:58:30;6.43;;;3.70;;
6868;SDS011;3473;42.604;23.496;2023-04-25T07:00:02;6.87;;;3.87;;
6868;SDS011;3473;42.604;23.496;2023-04-25T07:01:37;7.63;;;4.03;;
6868;SDS011;3473;42.604;23.496;2023-04-25T07:03:08;5.80;;;3.57;;
6868;SDS011;3473;42.604;23.496;2023-04-25T07:04:39;7.10;;;3.37;;
6868;SDS011;3473;42.604;23.496;2023-04-25T07:06:11;5.83;;;2.87;;
6868;SDS011;3473;42.604;23.496;2023-04-25T07:08:01;5.50;;;3.30;;
6868;SDS011;3473;42.604;23.496;2023-04-25T07:09:33;6.10;;;3.40;;
6868;SDS011;3473;42.604;23.496;2023-04-25T07:11:04;4.63;;;3.03;;
6868;SDS011;3473;42.604;23.496;2023-04-25T07:12:36;4.50;;;2.83;;
6868;SDS011;3473;42.604;23.496;2023-04-25T07:14:07;4.80;;;3.00;;
6868;SDS011;3473;42.604;23.496;2023-04-25T07:15:39;4.37;;;2.63;;
6868;SDS011;3473;42.604;23.496;2023-04-25T07:17:12;7.27;;;3.27;;
6868;SDS011;3473;42.604;23.496;2023-04-25T07:18:43;5.67;;;2.73;;
6868;SDS011;3473;42.604;23.496;2023-04-25T07:20:15;4.90;;;2.50;;
6868;SDS011;3473;42.604;23.496;2023-04-25T07:21:46;4.40;;;2.70;;
6868;SDS011;3473;42.604;23.496;2023-04-25T07:23:18;4.57;;;2.50;;
6868;SDS011;3473;42.604;23.496;2023-04-25T07:24:49;3.00;;;2.50;;
6868;SDS011;3473;42.604;23.496;2023-04-25T07:26:23;5.97;;;3.60;;
6868;SDS011;3473;42.604;23.496;2023-04-25T07:27:54;9.97;;;4.80;;
6868;SDS011;3473;42.604;23.496;2023-04-25T07:29:26;5.13;;;2.93;;
6868;SDS011;3473;42.604;23.496;2023-04-25T07:30:57;5.10;;;3.10;;
6868;SDS011;3473;42.604;23.496;2023-04-25T07:32:30;4.23;;;2.73;;
6868;SDS011;3473;42.604;23.496;2023-04-25T07:34:02;5.10;;;3.00;;
6868;SDS011;3473;42.604;23.496;2023-04-25T07:35:33;3.87;;;2.67;;
6868;SDS011;3473;42.604;23.496;2023-04-25T07:37:05;4.13;;;2.80;;
6868;SDS011;3473;42.604;23.496;2023-04-25T07:38:36;3.80;;;2.57;;
6868;SDS011;3473;42.604;23.496;2023-04-25T07:40:08;4.10;;;2.60;;
6868;SDS011;3473;42.604;23.496;2023-04-25T07:41:56;3.70;;;2.67;;
6868;SDS011;3473;42.604;23.496;2023-04-25T07:43:28;5.47;;;3.27;;
6868;SDS011;3473;42.604;23.496;2023-04-25T07:45:00;4.97;;;3.20;;
6868;SDS011;3473;42.604;23.496;2023-04-25T07:46:31;4.60;;;2.90;;
6868;SDS011;3473;42.604;23.496;2023-04-25T07:48:04;4.50;;;2.70;;
6868;SDS011;3473;42.604;23.496;2023-04-25T07:49:36;4.23;;;2.80;;
6868;SDS011;3473;42.604;23.496;2023-04-25T07:51:08;5.53;;;3.00;;
6868;SDS011;3473;42.604;23.496;2023-04-25T07:52:39;40.20;;;18.57;;
6868;SDS011;3473;42.604;23.496;2023-04-25T07:54:12;9.83;;;5.40;;
6868;SDS011;3473;42.604;23.496;2023-04-25T07:55:43;7.97;;;4.20;;
6868;SDS011;3473;42.604;23.496;2023-04-25T07:57:15;4.57;;;3.10;;
6868;SDS011;3473;42.604;23.496;2023-04-25T07:58:47;4.50;;;3.00;;
6868;SDS011;3473;42.604;23.496;2023-04-25T08:00:18;4.67;;;3.13;;
6868;SDS011;3473;42.604;23.496;2023-04-25T08:01:50;4.73;;;3.07;;
6868;SDS011;3473;42.604;23.496;2023-04-25T08:03:23;6.57;;;3.67;;
6868;SDS011;3473;42.604;23.496;2023-04-25T08:04:54;4.77;;;2.87;;
6868;SDS011;3473;42.604;23.496;2023-04-25T08:06:26;5.07;;;3.00;;
6868;SDS011;3473;42.604;23.496;2023-04-25T08:07:57;4.13;;;2.87;;
6868;SDS011;3473;42.604;23.496;2023-04-25T08:09:29;4.00;;;2.73;;
6868;SDS011;3473;42.604;23.496;2023-04-25T08:11:04;6.37;;;3.63;;
6868;SDS011;3473;42.604;23.496;2023-04-25T08:12:36;5.73;;;3.53;;
6868;SDS011;3473;42.604;23.496;2023-04-25T08:14:07;4.07;;;2.97;;
6868;SDS011;3473;42.604;23.496;2023-04-25T08:15:38;4.93;;;2.80;;
6868;SDS011;3473;42.604;23.496;2023-04-25T08:17:10;3.87;;;2.73;;
6868;SDS011;3473;42.604;23.496;2023-04-25T08:18:43;4.80;;;2.87;;
6868;SDS011;3473;42.604;23.496;2023-04-25T08:20:14;5.23;;;3.33;;
6868;SDS011;3473;42.604;23.496;2023-04-25T08:21:46;6.83;;;2.67;;
6868;SDS011;3473;42.604;23.496;2023-04-25T08:23:17;3.93;;;2.80;;
6868;SDS011;3473;42.604;23.496;2023-04-25T08:24:48;4.63;;;2.97;;
6868;SDS011;3473;42.604;23.496;2023-04-25T08:26:20;4.50;;;2.77;;
6868;SDS011;3473;42.604;23.496;2023-04-25T08:27:51;4.57;;;3.00;;
6868;SDS011;3473;42.604;23.496;2023-04-25T08:29:23;4.37;;;2.60;;
6868;SDS011;3473;42.604;23.496;2023-04-25T08:30:55;4.20;;;2.80;;
6868;SDS011;3473;42.604;23.496;2023-04-25T08:32:27;6.37;;;3.30;;
6868;SDS011;3473;42.604;23.496;2023-04-25T08:34:00;5.40;;;3.23;;
6868;SDS011;3473;42.604;23.496;2023-04-25T08:35:31;6.53;;;3.27;;
6868;SDS011;3473;42.604;23.496;2023-04-25T08:37:04;4.97;;;2.90;;
6868;SDS011;3473;42.604;23.496;2023-04-25T08:38:35;5.33;;;3.13;;
6868;SDS011;3473;42.604;23.496;2023-04-25T08:40:07;4.13;;;2.77;;
6868;SDS011;3473;42.604;23.496;2023-04-25T08:41:41;4.77;;;3.30;;
6868;SDS011;3473;42.604;23.496;2023-04-25T08:43:14;4.10;;;2.60;;
6868;SDS011;3473;42.604;23.496;2023-04-25T08:44:45;2.37;;;2.10;;
6868;SDS011;3473;42.604;23.496;2023-04-25T08:46:18;2.07;;;1.80;;
6868;SDS011;3473;42.604;23.496;2023-04-25T08:47:50;2.33;;;1.77;;
6868;SDS011;3473;42.604;23.496;2023-04-25T08:49:24;2.83;;;2.13;;
6868;SDS011;3473;42.604;23.496;2023-04-25T08:50:56;3.60;;;2.27;;
6868;SDS011;3473;42.604;23.496;2023-04-25T08:52:30;3.80;;;2.47;;
6868;SDS011;3473;42.604;23.496;2023-04-25T08:54:06;2.20;;;1.80;;
6868;SDS011;3473;42.604;23.496;2023-04-25T08:57:33;4.57;;;2.50;;
6868;SDS011;3473;42.604;23.496;2023-04-25T08:59:04;3.63;;;2.03;;
6868;SDS011;3473;42.604;23.496;2023-04-25T09:00:38;2.67;;;2.00;;
6868;SDS011;3473;42.604;23.496;2023-04-25T09:02:09;2.73;;;1.73;;
6868;SDS011;3473;42.604;23.496;2023-04-25T09:03:44;1.90;;;1.50;;
6868;SDS011;3473;42.604;23.496;2023-04-25T09:05:18;3.50;;;1.70;;
6868;SDS011;3473;42.604;23.496;2023-04-25T09:06:50;2.10;;;1.67;;
6868;SDS011;3473;42.604;23.496;2023-04-25T09:08:21;2.50;;;1.70;;
6868;SDS011;3473;42.604;23.496;2023-04-25T09:09:53;3.00;;;2.10;;
6868;SDS011;3473;42.604;23.496;2023-04-25T09:11:24;4.67;;;2.20;;
6868;SDS011;3473;42.604;23.496;2023-04-25T09:13:02;2.93;;;2.23;;
6868;SDS011;3473;42.604;23.496;2023-04-25T09:14:35;2.97;;;2.10;;
6868;SDS011;3473;42.604;23.496;2023-04-25T09:16:06;4.63;;;2.67;;
6868;SDS011;3473;42.604;23.496;2023-04-25T09:17:38;4.43;;;2.63;;
6868;SDS011;3473;42.604;23.496;2023-04-25T09:19:20;4.80;;;2.93;;
6868;SDS011;3473;42.604;23.496;2023-04-25T09:20:53;3.67;;;2.67;;
6868;SDS011;3473;42.604;23.496;2023-04-25T09:22:25;5.53;;;2.83;;
6868;SDS011;3473;42.604;23.496;2023-04-25T09:23:56;6.23;;;2.80;;
6868;SDS011;3473;42.604;23.496;2023-04-25T09:25:34;4.60;;;2.80;;
6868;SDS011;3473;42.604;23.496;2023-04-25T09:27:09;3.33;;;2.50;;
6868;SDS011;3473;42.604;23.496;2023-04-25T09:28:40;4.93;;;2.60;;
6868;SDS011;3473;42.604;23.496;2023-04-25T09:30:13;3.63;;;2.43;;
6868;SDS011;3473;42.604;23.496;2023-04-25T09:31:46;3.60;;;2.57;;
6868;SDS011;3473;42.604;23.496;2023-04-25T09:33:18;4.27;;;2.90;;